Time;durP1;ratioP1;P1;durP2;ratioP2;P2;SDS_P1;SDS_P2;PMS_P1;PMS_P2;Temp;Humidity;BMP_temperature;BMP_pressure;BME280_temperature;BME280_humidity;BME280_pressure;Samples;Min_cycle;Max_cycle;Signal;HPM_P1;HPM_P2
2023/02/17 00:00:54;;;;;;;18.80;11.35;;;;;;;;;;5074109;28;20028;-75
2023/02/17 00:03:20;;;;;;;15.90;10.43;;;;;;;;;;5073732;28;20119;-76
2023/02/17 00:05:46;;;;;;;17.42;11.07;;;;;;;;;;5074744;28;20048;-76
2023/02/17 00:08:12;;;;;;;19.13;10.55;;;;;;;;;;5074066;28;20250;-75
2023/02/17 00:10:38;;;;;;;15.13;10.45;;;;;;;;;;5074647;28;20016;-76
2023/02/17 00:13:04;;;;;;;13.18;9.85;;;;;;;;;;5074949;28;20097;-74
2023/02/17 00:15:30;;;;;;;16.63;10.60;;;;;;;;;;5074000;28;20027;-74
2023/02/17 00:17:56;;;;;;;16.15;10.20;;;;;;;;;;5054558;28;20036;-74
2023/02/17 00:20:22;;;;;;;15.02;9.70;;;;;;;;;;5060462;28;20032;-74
2023/02/17 00:22:48;;;;;;;17.95;11.00;;;;;;;;;;5074303;28;20398;-74
2023/02/17 00:25:14;;;;;;;17.67;10.70;;;;;;;;;;5058650;28;20021;-75
2023/02/17 00:27:40;;;;;;;14.07;10.38;;;;;;;;;;5051937;28;20021;-75
2023/02/17 00:30:06;;;;;;;17.83;11.35;;;;;;;;;;5054306;28;20360;-75
2023/02/17 00:32:32;;;;;;;20.58;10.68;;;;;;;;;;5058734;28;20025;-75
2023/02/17 00:34:58;;;;;;;18.83;10.98;;;;;;;;;;5064430;28;20025;-75
2023/02/17 00:37:25;;;;;;;25.50;11.50;;;;;;;;;;5064969;28;20021;-75
2023/02/17 00:39:51;;;;;;;21.60;10.90;;;;;;;;;;5067843;28;20048;-79
2023/02/17 00:42:17;;;;;;;16.20;10.98;;;;;;;;;;5072451;28;20422;-75
2023/02/17 00:44:43;;;;;;;16.15;10.80;;;;;;;;;;5074369;28;20314;-74
2023/02/17 00:47:09;;;;;;;16.55;10.38;;;;;;;;;;5073465;28;20016;-75
2023/02/17 00:49:35;;;;;;;14.20;10.65;;;;;;;;;;5073587;28;20099;-73
2023/02/17 00:52:01;;;;;;;17.52;11.82;;;;;;;;;;5073632;28;20028;-74
2023/02/17 01:03:39;;;;;;;16.45;10.88;;;;;;;;;;5053386;28;20020;-72
2023/02/17 01:06:08;;;;;;;17.23;10.77;;;;;;;;;;5053267;28;20106;-72
2023/02/17 01:08:34;;;;;;;17.75;11.10;;;;;;;;;;5052063;28;20032;-70
2023/02/17 01:11:00;;;;;;;17.35;11.00;;;;;;;;;;5051354;28;20172;-72
2023/02/17 01:13:26;;;;;;;17.55;10.68;;;;;;;;;;5052775;28;20030;-71
2023/02/17 01:15:53;;;;;;;16.17;10.70;;;;;;;;;;5053098;28;20021;-73
2023/02/17 01:18:20;;;;;;;15.38;10.40;;;;;;;;;;5052399;28;20119;-72
2023/02/17 01:20:46;;;;;;;14.63;10.73;;;;;;;;;;5048608;28;20021;-73
2023/02/17 01:23:12;;;;;;;14.70;10.43;;;;;;;;;;5045945;28;20048;-73
2023/02/17 01:25:39;;;;;;;16.55;9.95;;;;;;;;;;5050728;28;20104;-72
2023/02/17 01:28:06;;;;;;;13.43;9.85;;;;;;;;;;5052159;28;20025;-73
2023/02/17 01:30:32;;;;;;;13.82;10.27;;;;;;;;;;5053108;28;20104;-72
2023/02/17 01:32:58;;;;;;;17.48;10.23;;;;;;;;;;5053059;28;20078;-72
2023/02/17 01:35:24;;;;;;;14.35;10.10;;;;;;;;;;5052560;28;20017;-71
2023/02/17 01:37:50;;;;;;;14.95;9.27;;;;;;;;;;5051767;28;20102;-73
2023/02/17 01:40:17;;;;;;;12.98;8.30;;;;;;;;;;5052567;28;20025;-71
2023/02/17 01:42:43;;;;;;;12.30;8.95;;;;;;;;;;5052517;28;20028;-72
2023/02/17 01:45:18;;;;;;;14.00;9.48;;;;;;;;;;5052594;28;20040;-72
2023/02/17 01:48:02;;;;;;;12.55;8.50;;;;;;;;;;5051611;28;20462;-72
2023/02/17 01:50:34;;;;;;;12.00;7.88;;;;;;;;;;5052481;28;20024;-72
2023/02/17 01:52:59;;;;;;;;;;;;;;;;;;5052870;28;20017;-72
2023/02/17 01:55:26;;;;;;;12.60;8.48;;;;;;;;;;5050882;28;20290;-72
2023/02/17 01:57:53;;;;;;;13.40;7.97;;;;;;;;;;5051328;28;20123;-73
2023/02/17 02:00:20;;;;;;;11.63;7.80;;;;;;;;;;5052333;28;20037;-73
2023/02/17 02:02:47;;;;;;;11.73;8.27;;;;;;;;;;5050993;28;20087;-74
2023/02/17 02:05:14;;;;;;;12.00;7.40;;;;;;;;;;5050424;28;20078;-72
2023/02/17 02:10:43;;;;;;;11.65;7.53;;;;;;;;;;5052675;28;20027;-73
2023/02/17 02:13:09;;;;;;;13.20;7.78;;;;;;;;;;5051208;28;20025;-73
2023/02/17 02:15:54;;;;;;;14.95;8.07;;;;;;;;;;5046119;28;20032;-72
2023/02/17 02:18:25;;;;;;;13.73;7.50;;;;;;;;;;5035824;28;20059;-73
2023/02/17 02:21:13;;;;;;;10.80;7.07;;;;;;;;;;5041901;28;20029;-72
2023/02/17 02:23:53;;;;;;;15.27;7.97;;;;;;;;;;5045069;28;20134;-72
2023/02/17 02:26:24;;;;;;;11.20;7.05;;;;;;;;;;5045653;28;20398;-73
2023/02/17 02:28:50;;;;;;;11.85;7.65;;;;;;;;;;5051103;28;20599;-73
2023/02/17 02:31:22;;;;;;;10.82;6.60;;;;;;;;;;5051755;28;20021;-73
2023/02/17 02:34:00;;;;;;;12.45;7.53;;;;;;;;;;5048456;28;20411;-73
2023/02/17 02:36:30;;;;;;;14.57;8.02;;;;;;;;;;5049914;28;20021;-73
2023/02/17 02:38:56;;;;;;;11.77;7.25;;;;;;;;;;5050903;28;20506;-73
2023/02/17 02:41:24;;;;;;;11.02;6.70;;;;;;;;;;5050235;28;20035;-73
2023/02/17 02:43:51;;;;;;;13.15;8.02;;;;;;;;;;5051482;28;20028;-73
2023/02/17 02:46:30;;;;;;;15.00;7.10;;;;;;;;;;5051606;28;20021;-73
2023/02/17 02:48:56;;;;;;;13.15;7.53;;;;;;;;;;5050612;28;20102;-73
2023/02/17 02:51:40;;;;;;;14.18;7.35;;;;;;;;;;5045164;28;20021;-73
2023/02/17 02:54:18;;;;;;;13.05;7.47;;;;;;;;;;5037282;28;20013;-71
2023/02/17 02:56:50;;;;;;;15.43;8.80;;;;;;;;;;5051104;28;20025;-72
2023/02/17 02:59:31;;;;;;;11.13;7.93;;;;;;;;;;5050583;28;20311;-72
2023/02/17 03:01:58;;;;;;;15.40;8.95;;;;;;;;;;5051341;28;20025;-72
2023/02/17 03:04:25;;;;;;;22.15;10.02;;;;;;;;;;5049967;28;20364;-72
2023/02/17 03:07:01;;;;;;;12.20;8.80;;;;;;;;;;5052164;28;20021;-73
2023/02/17 03:09:28;;;;;;;13.27;8.77;;;;;;;;;;5051114;28;20609;-72
2023/02/17 03:11:58;;;;;;;13.00;8.77;;;;;;;;;;5050936;28;20025;-71
2023/02/17 03:14:24;;;;;;;16.02;8.90;;;;;;;;;;5049644;28;20486;-71
2023/02/17 03:16:51;;;;;;;13.73;9.95;;;;;;;;;;5050987;28;20032;-73
2023/02/17 03:19:19;;;;;;;18.80;9.63;;;;;;;;;;5048762;28;20063;-73
2023/02/17 03:21:47;;;;;;;14.77;9.35;;;;;;;;;;5039059;28;20487;-72
2023/02/17 03:24:13;;;;;;;20.20;10.20;;;;;;;;;;5050610;28;20096;-72
2023/02/17 03:26:40;;;;;;;16.38;9.15;;;;;;;;;;5042002;28;20110;-72
2023/02/17 03:29:06;;;;;;;17.25;9.45;;;;;;;;;;5049928;28;20391;-72
2023/02/17 03:31:32;;;;;;;12.23;8.55;;;;;;;;;;5049410;28;20025;-72
2023/02/17 03:33:58;;;;;;;12.40;8.63;;;;;;;;;;5050445;28;20054;-72
2023/02/17 03:36:25;;;;;;;14.35;9.63;;;;;;;;;;5050514;28;20095;-72
2023/02/17 03:38:51;;;;;;;17.95;9.73;;;;;;;;;;5049667;28;20036;-72
2023/02/17 03:41:17;;;;;;;13.00;8.73;;;;;;;;;;5051679;28;20021;-73
2023/02/17 03:43:43;;;;;;;15.70;9.18;;;;;;;;;;5050948;28;20052;-72
2023/02/17 03:46:13;;;;;;;12.52;8.80;;;;;;;;;;5051586;28;20475;-72
2023/02/17 03:48:39;;;;;;;15.88;9.35;;;;;;;;;;5049897;28;20112;-71
2023/02/17 03:51:10;;;;;;;14.95;9.35;;;;;;;;;;5049517;28;20035;-72
2023/02/17 03:53:36;;;;;;;15.57;8.63;;;;;;;;;;5049320;28;20029;-72
2023/02/17 03:56:02;;;;;;;11.77;8.68;;;;;;;;;;5050603;28;20086;-72
2023/02/17 03:58:27;;;;;;;13.02;8.38;;;;;;;;;;5049811;28;20564;-71
2023/02/17 04:00:53;;;;;;;15.80;9.20;;;;;;;;;;5050630;28;20029;-73
2023/02/17 04:03:19;;;;;;;14.65;9.25;;;;;;;;;;5050770;28;20498;-73
2023/02/17 04:05:45;;;;;;;15.82;9.43;;;;;;;;;;5050825;28;20083;-73
2023/02/17 04:08:11;;;;;;;12.88;9.38;;;;;;;;;;5048701;28;20031;-73
2023/02/17 04:10:37;;;;;;;16.55;9.63;;;;;;;;;;5049269;28;20021;-73
2023/02/17 04:13:03;;;;;;;16.98;9.02;;;;;;;;;;5050619;28;20039;-72
2023/02/17 04:15:29;;;;;;;16.70;9.23;;;;;;;;;;5050496;28;20450;-73
2023/02/17 04:17:55;;;;;;;17.23;8.63;;;;;;;;;;5049720;28;20025;-72
2023/02/17 04:20:23;;;;;;;12.60;9.10;;;;;;;;;;5049044;28;20036;-72
2023/02/17 04:22:49;;;;;;;15.73;10.70;;;;;;;;;;5040357;28;20506;-72
2023/02/17 04:25:15;;;;;;;15.40;10.52;;;;;;;;;;5044892;28;20021;-73
2023/02/17 04:27:41;;;;;;;16.33;10.80;;;;;;;;;;5045061;28;20043;-73
2023/02/17 04:30:07;;;;;;;15.55;11.48;;;;;;;;;;5050543;28;20394;-73
2023/02/17 04:32:33;;;;;;;18.67;10.90;;;;;;;;;;5050518;28;20522;-73
2023/02/17 04:34:59;;;;;;;16.40;11.00;;;;;;;;;;5050186;28;20108;-72
2023/02/17 04:37:25;;;;;;;14.57;11.40;;;;;;;;;;5049537;28;20018;-72
2023/02/17 04:39:51;;;;;;;21.95;12.95;;;;;;;;;;5048971;28;20028;-72
2023/02/17 04:42:17;;;;;;;16.40;10.82;;;;;;;;;;5050394;28;20252;-72
2023/02/17 04:44:43;;;;;;;16.88;11.30;;;;;;;;;;5045140;28;20510;-73
2023/02/17 04:47:09;;;;;;;14.45;10.82;;;;;;;;;;5052478;28;20471;-72
2023/02/17 04:49:35;;;;;;;18.33;11.52;;;;;;;;;;5053742;28;20090;-72
2023/02/17 04:52:01;;;;;;;15.95;11.65;;;;;;;;;;5053465;28;20020;-72
2023/02/17 04:54:27;;;;;;;17.65;11.88;;;;;;;;;;5052088;28;20108;-72
2023/02/17 04:56:53;;;;;;;30.90;12.52;;;;;;;;;;5053309;28;20052;-72
2023/02/17 04:59:19;;;;;;;15.52;10.88;;;;;;;;;;5052824;28;20056;-71
2023/02/17 05:01:45;;;;;;;18.13;11.32;;;;;;;;;;5053480;28;20463;-71
2023/02/17 05:04:11;;;;;;;20.67;10.93;;;;;;;;;;5053451;28;20070;-72
2023/02/17 05:06:37;;;;;;;20.65;12.32;;;;;;;;;;5052911;28;20402;-72
2023/02/17 05:09:03;;;;;;;16.98;11.15;;;;;;;;;;5052615;28;20025;-72
2023/02/17 05:11:30;;;;;;;17.30;11.48;;;;;;;;;;5051786;28;20035;-70
2023/02/17 05:13:56;;;;;;;18.02;11.27;;;;;;;;;;5052968;28;20151;-70
2023/02/17 05:16:22;;;;;;;15.82;10.60;;;;;;;;;;5052828;28;20025;-71
2023/02/17 05:18:48;;;;;;;17.08;10.98;;;;;;;;;;5051776;28;20036;-72
2023/02/17 05:21:14;;;;;;;15.25;10.18;;;;;;;;;;5044500;28;20041;-72
2023/02/17 05:23:40;;;;;;;13.48;10.32;;;;;;;;;;5049636;28;20110;-72
2023/02/17 05:26:07;;;;;;;19.50;11.02;;;;;;;;;;5044437;28;20315;-72
2023/02/17 05:28:34;;;;;;;14.20;10.52;;;;;;;;;;5051781;28;20025;-72
2023/02/17 05:31:00;;;;;;;15.02;11.40;;;;;;;;;;5053027;28;20025;-72
2023/02/17 05:33:26;;;;;;;14.40;9.63;;;;;;;;;;5052719;28;20518;-72
2023/02/17 05:35:52;;;;;;;14.38;9.70;;;;;;;;;;5053120;28;20292;-73
2023/02/17 05:38:19;;;;;;;14.73;11.35;;;;;;;;;;5050666;28;20025;-73
2023/02/17 05:40:45;;;;;;;17.48;10.57;;;;;;;;;;5052927;28;20076;-72
2023/02/17 05:43:11;;;;;;;14.27;10.52;;;;;;;;;;5051892;28;20060;-72
2023/02/17 05:45:37;;;;;;;14.63;10.82;;;;;;;;;;5053065;28;20099;-73
2023/02/17 05:48:03;;;;;;;12.98;9.57;;;;;;;;;;5053366;28;20028;-72
2023/02/17 05:50:29;;;;;;;17.52;10.35;;;;;;;;;;5055587;28;20064;-73
2023/02/17 05:52:55;;;;;;;14.90;10.55;;;;;;;;;;5055957;28;20113;-73
2023/02/17 05:55:21;;;;;;;16.45;11.45;;;;;;;;;;5052606;28;20108;-73
2023/02/17 05:57:47;;;;;;;13.85;9.50;;;;;;;;;;5050311;28;20119;-73
2023/02/17 06:00:14;;;;;;;13.15;10.25;;;;;;;;;;5052963;28;20112;-73
2023/02/17 06:02:40;;;;;;;14.40;9.73;;;;;;;;;;5052113;28;20483;-72
2023/02/17 06:05:06;;;;;;;14.27;9.95;;;;;;;;;;5052327;28;20501;-73
2023/02/17 06:07:32;;;;;;;13.40;9.50;;;;;;;;;;5051316;28;20027;-74
2023/02/17 06:09:58;;;;;;;14.07;10.52;;;;;;;;;;5052137;28;20049;-73
2023/02/17 06:12:24;;;;;;;11.38;9.82;;;;;;;;;;5052053;28;20025;-73
2023/02/17 06:14:50;;;;;;;12.80;9.82;;;;;;;;;;5052139;28;20017;-73
2023/02/17 06:17:16;;;;;;;13.82;9.07;;;;;;;;;;5051208;28;20013;-72
2023/02/17 06:19:42;;;;;;;11.38;9.60;;;;;;;;;;5036495;28;20033;-72
2023/02/17 06:22:08;;;;;;;12.90;9.32;;;;;;;;;;5032960;28;20028;-73
2023/02/17 06:24:34;;;;;;;12.50;9.48;;;;;;;;;;5051935;28;20028;-73
2023/02/17 06:27:01;;;;;;;12.43;9.10;;;;;;;;;;5033196;28;20074;-71
2023/02/17 06:29:27;;;;;;;10.40;8.43;;;;;;;;;;5047191;28;20025;-72
2023/02/17 06:31:53;;;;;;;10.48;8.93;;;;;;;;;;5051206;28;20032;-72
2023/02/17 06:34:19;;;;;;;12.77;8.85;;;;;;;;;;5051650;28;20486;-72
2023/02/17 06:36:45;;;;;;;13.32;8.75;;;;;;;;;;5050491;28;20029;-72
2023/02/17 06:39:11;;;;;;;10.43;7.82;;;;;;;;;;5050563;28;20063;-72
2023/02/17 06:41:37;;;;;;;11.60;8.88;;;;;;;;;;5052697;28;20438;-72
2023/02/17 06:44:04;;;;;;;12.40;9.18;;;;;;;;;;5052581;28;20021;-72
2023/02/17 06:46:30;;;;;;;10.57;7.90;;;;;;;;;;5050698;28;20481;-71
2023/02/17 06:48:56;;;;;;;10.80;8.15;;;;;;;;;;5050563;28;20078;-72
2023/02/17 06:51:22;;;;;;;13.23;7.72;;;;;;;;;;5051503;28;20398;-73
2023/02/17 06:53:48;;;;;;;11.45;8.63;;;;;;;;;;5051074;28;20394;-73
2023/02/17 06:56:14;;;;;;;11.75;7.63;;;;;;;;;;5050077;28;20014;-72
2023/02/17 06:58:40;;;;;;;11.95;8.80;;;;;;;;;;5063059;22;20055;-74
2023/02/17 07:01:08;;;;;;;14.02;9.15;;;;;;;;;;5050987;28;20096;-73
2023/02/17 07:03:34;;;;;;;11.77;8.30;;;;;;;;;;5051024;28;20045;-72
2023/02/17 07:06:00;;;;;;;10.65;8.30;;;;;;;;;;5051000;28;20021;-73
2023/02/17 07:08:26;;;;;;;12.68;8.23;;;;;;;;;;5048344;28;20025;-74
2023/02/17 07:10:52;;;;;;;8.93;7.65;;;;;;;;;;5051398;28;20122;-74
2023/02/17 07:13:18;;;;;;;11.95;8.35;;;;;;;;;;5049790;28;20116;-73
2023/02/17 07:15:44;;;;;;;11.88;8.50;;;;;;;;;;5050678;28;20021;-73
2023/02/17 07:18:10;;;;;;;10.63;7.75;;;;;;;;;;5050019;28;20017;-73
2023/02/17 07:20:36;;;;;;;11.45;7.63;;;;;;;;;;5047567;28;20072;-74
2023/02/17 07:23:02;;;;;;;10.18;8.27;;;;;;;;;;5042613;28;20483;-74
2023/02/17 07:25:28;;;;;;;10.73;7.70;;;;;;;;;;5043500;28;20029;-73
2023/02/17 07:27:54;;;;;;;9.57;7.80;;;;;;;;;;5047401;28;20021;-73
2023/02/17 07:30:20;;;;;;;11.60;7.10;;;;;;;;;;5050738;28;20403;-73
2023/02/17 07:32:47;;;;;;;12.40;7.78;;;;;;;;;;5050609;28;20017;-73
2023/02/17 07:35:13;;;;;;;11.35;8.45;;;;;;;;;;5050582;28;20526;-72
2023/02/17 07:37:39;;;;;;;11.55;7.68;;;;;;;;;;5049760;28;20029;-73
2023/02/17 07:40:05;;;;;;;9.85;7.50;;;;;;;;;;5047283;28;20025;-73
2023/02/17 07:42:31;;;;;;;10.32;7.45;;;;;;;;;;5026358;28;20527;-73
2023/02/17 07:44:57;;;;;;;9.15;7.97;;;;;;;;;;5048439;28;20176;-71
2023/02/17 07:47:23;;;;;;;10.60;7.53;;;;;;;;;;5047603;28;20075;-72
2023/02/17 07:49:49;;;;;;;9.80;7.55;;;;;;;;;;5048507;28;20049;-73
2023/02/17 07:52:18;;;;;;;9.57;7.10;;;;;;;;;;5048589;28;20467;-73
2023/02/17 07:54:44;;;;;;;9.23;7.30;;;;;;;;;;5041467;28;20029;-74
2023/02/17 07:57:10;;;;;;;10.85;7.90;;;;;;;;;;5031157;28;20480;-73
2023/02/17 07:59:36;;;;;;;10.27;7.57;;;;;;;;;;5046111;28;20055;-74
2023/02/17 08:02:03;;;;;;;9.80;7.47;;;;;;;;;;5048654;28;20025;-76
2023/02/17 08:04:31;;;;;;;9.50;6.85;;;;;;;;;;5040058;28;20111;-74
2023/02/17 08:06:57;;;;;;;12.57;7.75;;;;;;;;;;5048741;28;20044;-74
2023/02/17 08:15:00;;;;;;;10.98;8.32;;;;;;;;;;5050493;28;20102;-74
2023/02/17 08:17:27;;;;;;;11.82;7.78;;;;;;;;;;5025244;28;20108;-72
2023/02/17 08:19:53;;;;;;;11.15;7.13;;;;;;;;;;5037691;28;20495;-74
2023/02/17 08:22:19;;;;;;;12.63;7.93;;;;;;;;;;5028998;28;20032;-73
2023/02/17 08:24:45;;;;;;;14.77;8.48;;;;;;;;;;5050011;28;20056;-74
2023/02/17 08:27:13;;;;;;;9.68;7.65;;;;;;;;;;5046097;28;20050;-74
2023/02/17 08:29:39;;;;;;;12.35;8.60;;;;;;;;;;5054169;28;20031;-72
2023/02/17 08:32:05;;;;;;;11.38;8.05;;;;;;;;;;5054083;28;20108;-74
2023/02/17 08:34:34;;;;;;;13.20;8.52;;;;;;;;;;5047623;28;20113;-75
2023/02/17 08:37:04;;;;;;;11.82;8.02;;;;;;;;;;5052366;28;20021;-73
2023/02/17 08:39:30;;;;;;;13.50;8.10;;;;;;;;;;5053921;28;20074;-74
2023/02/17 08:41:57;;;;;;;9.85;8.18;;;;;;;;;;5053968;28;20398;-74
2023/02/17 08:44:23;;;;;;;11.18;7.68;;;;;;;;;;5054286;28;20029;-73
2023/02/17 08:46:50;;;;;;;12.30;8.50;;;;;;;;;;5053790;28;20048;-73
2023/02/17 08:49:17;;;;;;;9.32;7.00;;;;;;;;;;5042999;28;20125;-73
2023/02/17 08:51:43;;;;;;;8.75;6.88;;;;;;;;;;5035706;28;20092;-75
2023/02/17 08:54:09;;;;;;;10.00;7.40;;;;;;;;;;5053904;28;20542;-76
2023/02/17 08:56:36;;;;;;;10.45;7.35;;;;;;;;;;5053850;28;20113;-75
2023/02/17 08:59:02;;;;;;;9.07;6.95;;;;;;;;;;5052417;28;20029;-77
2023/02/17 09:01:29;;;;;;;9.30;6.75;;;;;;;;;;5052767;28;20116;-78
2023/02/17 09:03:56;;;;;;;11.63;6.95;;;;;;;;;;5053877;28;20108;-76
2023/02/17 09:06:22;;;;;;;9.32;6.03;;;;;;;;;;5052395;28;20033;-76
2023/02/17 09:08:49;;;;;;;7.15;5.88;;;;;;;;;;5052977;28;20032;-75
2023/02/17 09:11:17;;;;;;;7.72;6.10;;;;;;;;;;5050130;28;20033;-75
2023/02/17 09:13:44;;;;;;;7.97;6.07;;;;;;;;;;5049494;28;20343;-75
2023/02/17 09:16:10;;;;;;;9.27;6.05;;;;;;;;;;5034417;28;20151;-76
2023/02/17 09:18:36;;;;;;;6.25;4.85;;;;;;;;;;5049658;28;20033;-76
2023/02/17 09:21:06;;;;;;;9.80;6.25;;;;;;;;;;5036842;28;20071;-76
2023/02/17 09:23:32;;;;;;;6.10;4.95;;;;;;;;;;5045596;28;20025;-76
2023/02/17 09:26:04;;;;;;;6.35;4.57;;;;;;;;;;5036174;28;20029;-76
2023/02/17 09:28:30;;;;;;;5.75;4.50;;;;;;;;;;5041323;28;20099;-74
2023/02/17 09:30:56;;;;;;;5.47;4.70;;;;;;;;;;5032139;28;20068;-74
2023/02/17 09:33:22;;;;;;;7.13;4.35;;;;;;;;;;5036448;28;20026;-74
2023/02/17 09:35:48;;;;;;;5.70;4.20;;;;;;;;;;5049638;28;20032;-75
2023/02/17 09:38:15;;;;;;;6.10;4.35;;;;;;;;;;5040033;28;20053;-74
2023/02/17 09:40:42;;;;;;;5.45;4.38;;;;;;;;;;5034632;28;20029;-77
2023/02/17 09:43:11;;;;;;;5.15;4.18;;;;;;;;;;5052606;28;20029;-76
2023/02/17 09:45:37;;;;;;;6.78;4.70;;;;;;;;;;5043655;28;20060;-74
2023/02/17 09:48:08;;;;;;;7.18;4.10;;;;;;;;;;5034137;28;20060;-76
2023/02/17 09:50:50;;;;;;;4.82;4.05;;;;;;;;;;5052334;28;20029;-75
2023/02/17 09:53:16;;;;;;;5.25;4.32;;;;;;;;;;5050352;28;20027;-75
2023/02/17 09:55:44;;;;;;;3.80;3.20;;;;;;;;;;5050216;28;20112;-75
2023/02/17 09:58:36;;;;;;;5.15;3.65;;;;;;;;;;5040802;28;20107;-74
2023/02/17 10:01:07;;;;;;;4.72;3.90;;;;;;;;;;5050356;28;20068;-75
2023/02/17 10:03:34;;;;;;;;;;;;;;;;;;5052735;28;20021;-75
2023/02/17 10:06:12;;;;;;;6.35;4.18;;;;;;;;;;5051949;28;19905;-75
2023/02/17 10:08:49;;;;;;;4.72;4.05;;;;;;;;;;5050149;28;20074;-74
2023/02/17 10:11:15;;;;;;;6.10;3.78;;;;;;;;;;5052558;28;20031;-74
2023/02/17 10:13:43;;;;;;;6.35;4.10;;;;;;;;;;5051025;28;20017;-75
2023/02/17 10:16:13;;;;;;;6.40;3.83;;;;;;;;;;5051983;28;20067;-75
2023/02/17 10:18:41;;;;;;;5.25;4.45;;;;;;;;;;5051118;28;20452;-75
2023/02/17 10:21:10;;;;;;;4.60;3.90;;;;;;;;;;5044518;28;20029;-74
2023/02/17 10:23:37;;;;;;;5.78;3.90;;;;;;;;;;5048770;28;20029;-75
2023/02/17 10:26:21;;;;;;;4.60;3.83;;;;;;;;;;5038447;28;20017;-74
2023/02/17 10:28:53;;;;;;;5.43;3.92;;;;;;;;;;5051168;28;20383;-75
2023/02/17 10:31:43;;;;;;;5.97;4.07;;;;;;;;;;5051690;28;20101;-75
2023/02/17 10:34:18;;;;;;;4.13;3.45;;;;;;;;;;5046536;28;20109;-74
2023/02/17 10:36:46;;;;;;;5.03;3.50;;;;;;;;;;5051760;28;20402;-76
2023/02/17 10:39:13;;;;;;;3.97;3.50;;;;;;;;;;5051236;28;20032;-74
2023/02/17 10:41:39;;;;;;;6.65;3.85;;;;;;;;;;5050265;28;20144;-75
2023/02/17 10:44:08;;;;;;;5.18;3.92;;;;;;;;;;5049584;28;20028;-74
2023/02/17 10:46:34;;;;;;;6.18;3.30;;;;;;;;;;5050487;28;20029;-76
2023/02/17 10:49:00;;;;;;;6.90;3.33;;;;;;;;;;5050918;28;20467;-73
2023/02/17 10:51:28;;;;;;;4.43;3.38;;;;;;;;;;5051506;28;20063;-74
2023/02/17 10:53:59;;;;;;;5.75;3.60;;;;;;;;;;5051473;28;20445;-76
2023/02/17 10:56:34;;;;;;;5.07;3.55;;;;;;;;;;5051705;28;20035;-74
2023/02/17 10:59:21;;;;;;;3.83;3.22;;;;;;;;;;5051497;28;20083;-74
2023/02/17 11:01:48;;;;;;;3.90;3.15;;;;;;;;;;5064792;28;20067;-74
2023/02/17 11:04:14;;;;;;;3.92;3.00;;;;;;;;;;5067577;28;20075;-75
2023/02/17 11:06:51;;;;;;;3.30;2.80;;;;;;;;;;5061860;28;20043;-74
2023/02/17 11:09:17;;;;;;;5.50;2.97;;;;;;;;;;5054663;28;20025;-74
2023/02/17 11:11:49;;;;;;;5.70;3.22;;;;;;;;;;5051824;28;20055;-75
2023/02/17 11:14:25;;;;;;;7.30;3.38;;;;;;;;;;5051326;28;20398;-75
2023/02/17 11:16:54;;;;;;;4.80;3.20;;;;;;;;;;5049914;28;20472;-77
2023/02/17 11:19:25;;;;;;;5.50;3.53;;;;;;;;;;5050252;28;20071;-76
2023/02/17 11:21:55;;;;;;;5.90;3.55;;;;;;;;;;5037967;28;20488;-75
2023/02/17 11:24:21;;;;;;;5.70;3.22;;;;;;;;;;5048648;28;20490;-75
2023/02/17 11:26:56;;;;;;;6.07;3.17;;;;;;;;;;5040470;28;20037;-74
2023/02/17 11:29:23;;;;;;;6.30;3.78;;;;;;;;;;5050328;28;20479;-77
2023/02/17 11:32:00;;;;;;;4.18;3.28;;;;;;;;;;5050648;28;20025;-77
2023/02/17 11:34:27;;;;;;;6.72;3.30;;;;;;;;;;5051211;28;20071;-72
2023/02/17 11:36:59;;;;;;;4.28;3.22;;;;;;;;;;5050904;28;20025;-74
2023/02/17 11:39:26;;;;;;;4.00;3.45;;;;;;;;;;5050475;28;20029;-72
2023/02/17 11:41:52;;;;;;;3.97;3.00;;;;;;;;;;5050962;28;20415;-76
2023/02/17 11:44:25;;;;;;;9.40;3.30;;;;;;;;;;5050613;28;20432;-73
2023/02/17 11:47:17;;;;;;;4.82;2.63;;;;;;;;;;5050955;28;20399;-76
2023/02/17 11:49:46;;;;;;;5.15;2.88;;;;;;;;;;5050727;28;20503;-76
2023/02/17 11:52:31;;;;;;;4.65;3.22;;;;;;;;;;5050735;28;20029;-74
2023/02/17 11:54:59;;;;;;;4.78;3.05;;;;;;;;;;5050392;28;20389;-75
2023/02/17 11:57:40;;;;;;;4.15;2.45;;;;;;;;;;5053740;28;20028;-75
2023/02/17 12:00:09;;;;;;;5.43;2.90;;;;;;;;;;5043547;28;20114;-76
2023/02/17 12:02:53;;;;;;;3.60;2.20;;;;;;;;;;5051579;28;20259;-77
2023/02/17 12:05:19;;;;;;;4.95;3.22;;;;;;;;;;5053184;28;20091;-75
2023/02/17 12:07:55;;;;;;;2.88;2.40;;;;;;;;;;5053695;28;20033;-75
2023/02/17 12:10:40;;;;;;;3.42;2.35;;;;;;;;;;5054122;28;20036;-71
2023/02/17 12:13:12;;;;;;;3.10;2.58;;;;;;;;;;5054596;28;20021;-75
2023/02/17 12:15:38;;;;;;;5.00;2.92;;;;;;;;;;5054530;28;20031;-75
2023/02/17 12:18:27;;;;;;;5.18;2.70;;;;;;;;;;5053241;28;20418;-72
2023/02/17 12:20:59;;;;;;;9.90;3.05;;;;;;;;;;5049420;28;20025;-75
2023/02/17 12:23:44;;;;;;;4.00;2.67;;;;;;;;;;5049703;28;20340;-72
2023/02/17 12:26:19;;;;;;;3.90;2.50;;;;;;;;;;5037242;28;20037;-75
2023/02/17 12:28:52;;;;;;;3.65;2.40;;;;;;;;;;5057627;28;20033;-73
2023/02/17 12:31:36;;;;;;;4.97;2.92;;;;;;;;;;5060270;28;20025;-76
2023/02/17 12:34:09;;;;;;;7.30;2.53;;;;;;;;;;5057689;28;20017;-75
2023/02/17 12:36:37;;;;;;;4.30;2.83;;;;;;;;;;5057911;28;20021;-75
2023/02/17 12:39:11;;;;;;;5.45;2.78;;;;;;;;;;5059353;28;20151;-74
2023/02/17 12:41:39;;;;;;;6.45;2.58;;;;;;;;;;5047645;28;20488;-75
2023/02/17 12:44:23;;;;;;;3.47;2.42;;;;;;;;;;5040992;28;20100;-75
2023/02/17 12:46:51;;;;;;;4.68;2.35;;;;;;;;;;5057140;28;20029;-74
2023/02/17 12:49:23;;;;;;;4.00;2.63;;;;;;;;;;5054215;28;20029;-74
2023/02/17 12:51:55;;;;;;;8.02;2.30;;;;;;;;;;5052258;28;20021;-75
2023/02/17 12:54:29;;;;;;;3.42;2.53;;;;;;;;;;5051989;28;20497;-74
2023/02/17 12:57:16;;;;;;;3.55;2.53;;;;;;;;;;5051030;28;20472;-75
2023/02/17 12:59:44;;;;;;;3.25;2.17;;;;;;;;;;5053604;28;20029;-76
2023/02/17 13:02:18;;;;;;;6.00;2.78;;;;;;;;;;5052221;28;20601;-73
2023/02/17 13:04:45;;;;;;;4.20;1.80;;;;;;;;;;5052126;28;20131;-73
2023/02/17 13:07:30;;;;;;;4.68;1.98;;;;;;;;;;5051634;28;20029;-73
2023/02/17 13:09:56;;;;;;;8.35;2.10;;;;;;;;;;5049849;28;20036;-73
2023/02/17 13:12:22;;;;;;;4.70;2.25;;;;;;;;;;5050003;28;20057;-74
2023/02/17 13:14:50;;;;;;;3.92;2.17;;;;;;;;;;5051741;28;20052;-74
2023/02/17 13:17:22;;;;;;;2.75;1.88;;;;;;;;;;5049812;28;20503;-75
2023/02/17 13:19:48;;;;;;;3.35;1.95;;;;;;;;;;5052023;28;20212;-75
2023/02/17 13:22:22;;;;;;;6.32;1.88;;;;;;;;;;5052049;28;20609;-74
2023/02/17 13:24:52;;;;;;;7.70;1.98;;;;;;;;;;5052073;28;20554;-72
2023/02/17 13:27:22;;;;;;;3.25;2.22;;;;;;;;;;5052879;28;20476;-71
2023/02/17 13:30:17;;;;;;;5.22;1.55;;;;;;;;;;5053281;28;20025;-72
2023/02/17 13:32:44;;;;;;;2.78;2.22;;;;;;;;;;5044534;28;20036;-74
2023/02/17 13:35:10;;;;;;;3.45;1.95;;;;;;;;;;5053414;28;20025;-73
2023/02/17 13:37:36;;;;;;;1.90;1.70;;;;;;;;;;5052549;28;20072;-74
2023/02/17 13:40:17;;;;;;;4.75;1.95;;;;;;;;;;5053457;28;20078;-74
2023/02/17 13:42:54;;;;;;;1.85;1.60;;;;;;;;;;5053476;28;20048;-75
2023/02/17 13:45:20;;;;;;;4.13;1.77;;;;;;;;;;5053449;28;20021;-74
2023/02/17 13:47:47;;;;;;;5.88;1.90;;;;;;;;;;5052372;28;20023;-74
2023/02/17 13:50:32;;;;;;;3.25;1.90;;;;;;;;;;5053237;28;20118;-74
2023/02/17 13:52:58;;;;;;;4.50;1.60;;;;;;;;;;5052996;28;20025;-74
2023/02/17 13:55:24;;;;;;;6.07;1.63;;;;;;;;;;5052770;28;20135;-74
2023/02/17 13:57:54;;;;;;;4.75;1.73;;;;;;;;;;5052287;28;20044;-74
2023/02/17 14:00:28;;;;;;;2.20;1.52;;;;;;;;;;5052714;28;20032;-74
2023/02/17 14:02:56;;;;;;;3.72;1.42;;;;;;;;;;5052954;28;20025;-75
2023/02/17 14:05:34;;;;;;;4.30;1.45;;;;;;;;;;5052981;28;20017;-77
2023/02/17 14:08:03;;;;;;;2.00;1.42;;;;;;;;;;5052423;28;20037;-74
2023/02/17 14:10:30;;;;;;;1.33;1.10;;;;;;;;;;5052986;28;20028;-72
2023/02/17 14:12:56;;;;;;;4.68;1.70;;;;;;;;;;5052930;28;20387;-73
2023/02/17 14:15:25;;;;;;;6.07;1.85;;;;;;;;;;5052765;28;20089;-76
2023/02/17 14:17:51;;;;;;;3.17;1.60;;;;;;;;;;5030029;28;20014;-73
2023/02/17 14:20:34;;;;;;;2.92;1.35;;;;;;;;;;5023353;28;20026;-73
2023/02/17 14:23:10;;;;;;;2.58;1.27;;;;;;;;;;5032309;28;20476;-73
2023/02/17 14:25:38;;;;;;;5.45;1.58;;;;;;;;;;5032909;28;20391;-71
2023/02/17 14:28:16;;;;;;;2.55;1.08;;;;;;;;;;5031574;28;20025;-70
2023/02/17 14:30:42;;;;;;;2.13;1.20;;;;;;;;;;5032420;28;20108;-74
2023/02/17 14:33:21;;;;;;;2.90;1.27;;;;;;;;;;5032240;28;20099;-73
2023/02/17 14:35:52;;;;;;;2.60;1.38;;;;;;;;;;5031127;28;20032;-73
2023/02/17 14:38:20;;;;;;;5.80;1.75;;;;;;;;;;5029893;28;20414;-73
2023/02/17 14:40:46;;;;;;;2.78;1.48;;;;;;;;;;5032412;28;20456;-74
2023/02/17 14:43:12;;;;;;;2.20;1.60;;;;;;;;;;5032111;28;20026;-72
2023/02/17 14:45:38;;;;;;;1.23;1.13;;;;;;;;;;5031867;28;20377;-74
2023/02/17 14:48:04;;;;;;;1.50;1.40;;;;;;;;;;5029999;28;20049;-74
2023/02/17 14:50:40;;;;;;;2.47;1.45;;;;;;;;;;5032366;28;20022;-73
2023/02/17 14:53:09;;;;;;;3.97;1.80;;;;;;;;;;5031986;28;20100;-73
2023/02/17 14:55:37;;;;;;;5.47;1.58;;;;;;;;;;5030275;28;20435;-73
2023/02/17 14:58:04;;;;;;;3.63;1.55;;;;;;;;;;5030724;28;20124;-73
2023/02/17 15:00:30;;;;;;;2.65;1.65;;;;;;;;;;5032351;28;20041;-72